Time;durP1;ratioP1;P1;durP2;ratioP2;P2;SDS_P1;SDS_P2;PMS_P1;PMS_P2;Temp;Humidity;BMP_temperature;BMP_pressure;BME280_temperature;BME280_humidity;BME280_pressure;Samples;Min_cycle;Max_cycle;Signal;HPM_P1;HPM_P2
2022/03/29 00:02:19;;;;;;;2.65;2.08;;;;;;;;;;5056986;28;20028;-79
2022/03/29 00:04:45;;;;;;;2.78;2.50;;;;;;;;;;5074507;28;20024;-79
2022/03/29 00:07:22;;;;;;;3.42;1.92;;;;;;;;;;5056593;28;20024;-79
2022/03/29 00:09:55;;;;;;;2.05;1.73;;;;;;;;;;5056920;28;20056;-80
2022/03/29 00:12:23;;;;;;;5.00;2.95;;;;;;;;;;5069515;28;20028;-79
2022/03/29 00:14:48;;;;;;;2.67;2.10;;;;;;;;;;5074321;28;20102;-79
2022/03/29 00:17:14;;;;;;;3.35;2.05;;;;;;;;;;5056449;28;20032;-79
2022/03/29 00:19:39;;;;;;;2.75;2.55;;;;;;;;;;5056376;28;20036;-80
2022/03/29 00:22:04;;;;;;;1.17;1.08;;;;;;;;;;5073405;28;20077;-79
2022/03/29 00:24:29;;;;;;;3.13;2.88;;;;;;;;;;5056639;28;20442;-79
2022/03/29 00:26:58;;;;;;;0.75;0.75;;;;;;;;;;5074104;28;20036;-79
2022/03/29 00:29:23;;;;;;;3.15;1.77;;;;;;;;;;5073939;28;20469;-78
2022/03/29 00:31:49;;;;;;;2.00;1.83;;;;;;;;;;5073270;28;20028;-81
2022/03/29 00:34:14;;;;;;;1.52;1.40;;;;;;;;;;5056868;28;20453;-79
2022/03/29 00:36:40;;;;;;;1.80;1.67;;;;;;;;;;5055965;28;20044;-79
2022/03/29 00:39:05;;;;;;;2.60;2.05;;;;;;;;;;5056157;28;20024;-80
2022/03/29 00:41:33;;;;;;;1.80;1.65;;;;;;;;;;5072802;28;20029;-79
2022/03/29 00:43:58;;;;;;;2.25;2.05;;;;;;;;;;5073528;28;20043;-79
2022/03/29 00:46:24;;;;;;;1.75;1.25;;;;;;;;;;5039293;28;20029;-79
2022/03/29 00:48:49;;;;;;;1.67;1.58;;;;;;;;;;5038904;28;20034;-81
2022/03/29 00:51:15;;;;;;;3.25;2.25;;;;;;;;;;5073787;28;20027;-79
2022/03/29 00:53:43;;;;;;;1.70;1.38;;;;;;;;;;5054812;28;20384;-79
2022/03/29 00:56:11;;;;;;;3.22;2.05;;;;;;;;;;5055787;28;20021;-80
2022/03/29 00:58:37;;;;;;;1.45;1.38;;;;;;;;;;5056548;28;20067;-80
2022/03/29 01:01:04;;;;;;;2.03;1.85;;;;;;;;;;5055804;28;20052;-79
2022/03/29 01:03:30;;;;;;;2.70;1.83;;;;;;;;;;5056013;28;20042;-79
2022/03/29 01:05:56;;;;;;;3.45;1.95;;;;;;;;;;5073527;28;20103;-79
2022/03/29 01:08:22;;;;;;;1.55;1.45;;;;;;;;;;5053504;28;20119;-79
2022/03/29 01:10:48;;;;;;;2.20;1.02;;;;;;;;;;5073358;28;20474;-80
2022/03/29 01:13:20;;;;;;;1.55;1.25;;;;;;;;;;5055845;28;20024;-80
2022/03/29 01:15:49;;;;;;;4.73;2.23;;;;;;;;;;5055435;28;20442;-80
2022/03/29 01:18:17;;;;;;;2.17;1.88;;;;;;;;;;5056076;28;20283;-80
2022/03/29 01:20:49;;;;;;;2.20;2.10;;;;;;;;;;5055799;28;20036;-80
2022/03/29 01:23:18;;;;;;;2.38;2.17;;;;;;;;;;5073293;28;20071;-80
2022/03/29 01:25:43;;;;;;;2.45;2.05;;;;;;;;;;5073072;28;20450;-80
2022/03/29 01:28:10;;;;;;;2.28;2.05;;;;;;;;;;5105302;22;20042;-80
2022/03/29 01:30:35;;;;;;;2.05;1.85;;;;;;;;;;5035597;28;20079;-80
2022/03/29 01:33:06;;;;;;;1.77;1.67;;;;;;;;;;5035815;28;20053;-80
2022/03/29 01:35:32;;;;;;;3.17;2.13;;;;;;;;;;5053422;28;20459;-80
2022/03/29 01:37:57;;;;;;;2.70;2.50;;;;;;;;;;5035392;28;20074;-79
2022/03/29 01:40:26;;;;;;;2.83;2.53;;;;;;;;;;5053097;28;20025;-79
2022/03/29 01:42:55;;;;;;;1.73;1.58;;;;;;;;;;5052777;28;20056;-78
2022/03/29 01:45:25;;;;;;;3.58;3.28;;;;;;;;;;5053320;28;20116;-79
2022/03/29 01:47:52;;;;;;;1.17;1.15;;;;;;;;;;5052392;28;20033;-80
2022/03/29 01:50:21;;;;;;;4.65;3.30;;;;;;;;;;5052904;28;20044;-80
2022/03/29 01:52:47;;;;;;;2.63;2.42;;;;;;;;;;5056277;28;20057;-79
2022/03/29 01:55:18;;;;;;;3.08;2.28;;;;;;;;;;5057247;28;20382;-80
2022/03/29 01:57:47;;;;;;;3.53;2.20;;;;;;;;;;5060613;28;20028;-80
2022/03/29 02:00:32;;;;;;;2.13;1.85;;;;;;;;;;5060349;28;20036;-80
2022/03/29 02:02:58;;;;;;;1.88;1.00;;;;;;;;;;5068058;28;20021;-80
2022/03/29 02:05:24;;;;;;;5.10;1.48;;;;;;;;;;5047922;28;20040;-80
2022/03/29 02:07:52;;;;;;;7.05;2.63;;;;;;;;;;5040675;28;20044;-80
2022/03/29 02:10:19;;;;;;;3.05;2.70;;;;;;;;;;5058019;28;20033;-80
2022/03/29 02:12:44;;;;;;;4.65;3.35;;;;;;;;;;5038597;28;20025;-80
2022/03/29 02:15:10;;;;;;;0.70;0.70;;;;;;;;;;5038720;28;20029;-79
2022/03/29 02:17:35;;;;;;;1.60;1.50;;;;;;;;;;5038633;28;20438;-78
2022/03/29 02:20:06;;;;;;;1.63;1.52;;;;;;;;;;5056263;28;20029;-79
2022/03/29 02:22:32;;;;;;;1.23;1.13;;;;;;;;;;5055929;28;20443;-80
2022/03/29 02:24:59;;;;;;;2.83;2.63;;;;;;;;;;5038745;28;20031;-80
2022/03/29 02:27:28;;;;;;;3.70;2.08;;;;;;;;;;5055797;28;20107;-80
2022/03/29 02:29:53;;;;;;;1.65;1.55;;;;;;;;;;5053208;28;20100;-79
2022/03/29 02:32:21;;;;;;;1.25;1.17;;;;;;;;;;5055877;28;20032;-79
2022/03/29 02:34:46;;;;;;;0.77;0.77;;;;;;;;;;5055942;28;20035;-79
2022/03/29 02:37:13;;;;;;;1.75;1.65;;;;;;;;;;5050996;28;20103;-80
2022/03/29 02:39:38;;;;;;;1.42;1.33;;;;;;;;;;5054783;28;20025;-79
2022/03/29 02:42:07;;;;;;;4.20;3.80;;;;;;;;;;5035658;28;20067;-79
2022/03/29 02:44:33;;;;;;;2.75;2.35;;;;;;;;;;5054098;28;20060;-80
2022/03/29 02:47:05;;;;;;;3.50;3.20;;;;;;;;;;5055931;28;20382;-80
2022/03/29 02:49:33;;;;;;;2.95;2.33;;;;;;;;;;5049842;28;20021;-80
2022/03/29 02:51:58;;;;;;;1.92;1.65;;;;;;;;;;5055767;28;20024;-80
2022/03/29 02:54:24;;;;;;;3.00;2.70;;;;;;;;;;5054776;28;20028;-79
2022/03/29 02:56:51;;;;;;;2.92;2.67;;;;;;;;;;5055703;28;20409;-79
2022/03/29 02:59:19;;;;;;;4.88;2.63;;;;;;;;;;5055203;28;20497;-79
2022/03/29 03:01:45;;;;;;;2.50;2.30;;;;;;;;;;5048326;28;20029;-79
2022/03/29 03:04:15;;;;;;;5.63;3.75;;;;;;;;;;5037384;28;20027;-80
2022/03/29 03:06:49;;;;;;;1.55;1.48;;;;;;;;;;5055252;28;20086;-80
2022/03/29 03:09:17;;;;;;;3.55;2.75;;;;;;;;;;5054356;28;20032;-79
2022/03/29 03:11:42;;;;;;;2.63;2.40;;;;;;;;;;5055598;28;20052;-80
2022/03/29 03:14:10;;;;;;;2.22;2.03;;;;;;;;;;5055019;28;20106;-80
2022/03/29 03:16:35;;;;;;;3.22;2.95;;;;;;;;;;5037896;28;20040;-79
2022/03/29 03:19:00;;;;;;;3.03;2.50;;;;;;;;;;5055104;28;20032;-80
2022/03/29 03:21:26;;;;;;;3.22;2.92;;;;;;;;;;5055149;28;20025;-79
2022/03/29 03:23:54;;;;;;;2.70;2.50;;;;;;;;;;5055314;28;20021;-79
2022/03/29 03:26:19;;;;;;;5.80;3.65;;;;;;;;;;5055045;28;20559;-79
2022/03/29 03:28:45;;;;;;;4.35;2.28;;;;;;;;;;5054939;28;20108;-78
2022/03/29 03:31:10;;;;;;;2.08;1.80;;;;;;;;;;5048594;28;20047;-80
2022/03/29 03:33:35;;;;;;;2.30;2.13;;;;;;;;;;5037451;28;20112;-80
2022/03/29 03:36:01;;;;;;;2.75;2.38;;;;;;;;;;5055041;28;20037;-79
2022/03/29 03:38:26;;;;;;;2.40;2.20;;;;;;;;;;5054859;28;20051;-79
2022/03/29 03:40:52;;;;;;;5.82;2.83;;;;;;;;;;5054936;28;20031;-80
2022/03/29 03:43:19;;;;;;;1.35;1.27;;;;;;;;;;5054712;28;20464;-79
2022/03/29 03:45:46;;;;;;;2.88;2.67;;;;;;;;;;5054818;28;20036;-80
2022/03/29 03:48:11;;;;;;;9.52;3.58;;;;;;;;;;5037320;28;20454;-78
2022/03/29 03:50:36;;;;;;;5.05;2.67;;;;;;;;;;5054511;28;20031;-78
2022/03/29 03:53:02;;;;;;;3.22;2.90;;;;;;;;;;5037103;28;20074;-78
2022/03/29 03:55:27;;;;;;;3.30;2.92;;;;;;;;;;5054637;28;20036;-77
2022/03/29 03:57:52;;;;;;;6.35;2.42;;;;;;;;;;5054812;28;20033;-78
2022/03/29 04:00:21;;;;;;;3.58;3.28;;;;;;;;;;5053374;28;20052;-78
2022/03/29 04:02:49;;;;;;;4.03;3.65;;;;;;;;;;5051827;28;20021;-79
2022/03/29 04:05:14;;;;;;;3.78;3.58;;;;;;;;;;5030520;28;20024;-79
2022/03/29 04:07:40;;;;;;;3.42;3.13;;;;;;;;;;5036234;28;20025;-79
2022/03/29 04:10:07;;;;;;;3.45;3.17;;;;;;;;;;5036184;28;20103;-79
2022/03/29 04:12:35;;;;;;;3.08;2.28;;;;;;;;;;5037037;28;20025;-79
2022/03/29 04:15:01;;;;;;;2.97;2.72;;;;;;;;;;5054676;28;20059;-79
2022/03/29 04:17:27;;;;;;;2.47;2.28;;;;;;;;;;5039444;28;20342;-79
2022/03/29 04:19:52;;;;;;;4.30;3.90;;;;;;;;;;5057181;28;20056;-79
2022/03/29 04:22:18;;;;;;;1.55;1.38;;;;;;;;;;5054418;28;20112;-79
2022/03/29 04:24:47;;;;;;;4.40;3.45;;;;;;;;;;5054160;28;20056;-81
2022/03/29 04:27:12;;;;;;;1.05;1.05;;;;;;;;;;5053195;28;20033;-80
2022/03/29 04:29:37;;;;;;;3.03;2.67;;;;;;;;;;5053919;28;20028;-79
2022/03/29 04:32:06;;;;;;;2.00;1.90;;;;;;;;;;5035977;28;20025;-79
2022/03/29 04:34:32;;;;;;;4.60;4.22;;;;;;;;;;5053176;28;20024;-78
2022/03/29 04:37:00;;;;;;;3.67;3.35;;;;;;;;;;5054118;28;20438;-79
2022/03/29 04:39:26;;;;;;;3.40;3.08;;;;;;;;;;5036098;28;20071;-79
2022/03/29 04:41:51;;;;;;;4.80;4.32;;;;;;;;;;5053081;28;20044;-79
2022/03/29 04:44:17;;;;;;;6.13;4.97;;;;;;;;;;5054229;28;20020;-80
2022/03/29 04:46:42;;;;;;;2.60;0.82;;;;;;;;;;5036504;28;20100;-80
2022/03/29 04:49:08;;;;;;;4.40;4.00;;;;;;;;;;5036451;28;20044;-81
2022/03/29 04:51:34;;;;;;;4.80;3.45;;;;;;;;;;5035785;28;20121;-80
2022/03/29 04:53:59;;;;;;;6.30;4.50;;;;;;;;;;5053898;28;20028;-80
2022/03/29 04:56:29;;;;;;;5.55;4.85;;;;;;;;;;5053855;28;20029;-80
2022/03/29 04:58:55;;;;;;;6.22;4.80;;;;;;;;;;5036661;28;20472;-77
2022/03/29 05:01:29;;;;;;;4.88;4.43;;;;;;;;;;5052195;28;20060;-78
2022/03/29 05:04:02;;;;;;;5.85;2.75;;;;;;;;;;5053204;28;20025;-77
2022/03/29 05:06:30;;;;;;;9.15;5.63;;;;;;;;;;5052801;28;20050;-79
2022/03/29 05:08:55;;;;;;;4.60;4.22;;;;;;;;;;5048502;28;20047;-79
2022/03/29 05:11:23;;;;;;;7.18;5.90;;;;;;;;;;5050875;28;20036;-79
2022/03/29 05:13:49;;;;;;;5.18;4.72;;;;;;;;;;5033475;28;20458;-80
2022/03/29 05:16:15;;;;;;;3.85;3.53;;;;;;;;;;5053799;28;20029;-79
2022/03/29 05:18:42;;;;;;;3.75;3.42;;;;;;;;;;5049959;28;20027;-80
2022/03/29 05:21:08;;;;;;;2.78;2.58;;;;;;;;;;5053470;28;20027;-80
2022/03/29 05:23:35;;;;;;;5.47;4.97;;;;;;;;;;5053577;28;20539;-79
2022/03/29 05:26:05;;;;;;;8.55;7.78;;;;;;;;;;5036387;28;20029;-79
2022/03/29 05:28:31;;;;;;;4.50;4.13;;;;;;;;;;5040375;28;20388;-79
2022/03/29 05:30:59;;;;;;;5.00;4.38;;;;;;;;;;5057469;28;20104;-79
2022/03/29 05:33:25;;;;;;;2.92;2.60;;;;;;;;;;5057544;28;20100;-80
2022/03/29 05:35:50;;;;;;;6.85;4.32;;;;;;;;;;5039531;28;20112;-81
2022/03/29 05:38:17;;;;;;;11.07;5.50;;;;;;;;;;5057326;28;20029;-79
2022/03/29 05:40:43;;;;;;;5.15;3.55;;;;;;;;;;5057374;28;20021;-79
2022/03/29 05:43:11;;;;;;;7.10;6.25;;;;;;;;;;5057197;28;20017;-79
2022/03/29 05:45:39;;;;;;;3.15;2.88;;;;;;;;;;5039729;28;20082;-78
2022/03/29 05:50:50;;;;;;;2.95;2.75;;;;;;;;;;5042178;28;20623;-79
2022/03/29 05:53:15;;;;;;;6.10;4.72;;;;;;;;;;5039600;28;20021;-79
2022/03/29 05:55:40;;;;;;;3.60;3.28;;;;;;;;;;5056786;28;20094;-77
2022/03/29 05:58:06;;;;;;;3.92;3.63;;;;;;;;;;5040193;28;20373;-79
2022/03/29 06:00:34;;;;;;;4.85;4.53;;;;;;;;;;5057301;28;20078;-79
2022/03/29 06:02:59;;;;;;;4.30;3.92;;;;;;;;;;5052454;28;20480;-79
2022/03/29 06:05:24;;;;;;;4.03;3.72;;;;;;;;;;5059845;28;20107;-79
2022/03/29 06:07:50;;;;;;;6.32;5.78;;;;;;;;;;5058687;28;20041;-79
2022/03/29 06:10:18;;;;;;;3.40;2.78;;;;;;;;;;5069252;28;20029;-80
2022/03/29 06:12:46;;;;;;;12.30;5.53;;;;;;;;;;5058146;28;20025;-80
2022/03/29 06:15:11;;;;;;;4.53;4.10;;;;;;;;;;5059450;28;20025;-80
2022/03/29 06:17:40;;;;;;;5.05;4.65;;;;;;;;;;5058468;28;20028;-80
2022/03/29 06:20:10;;;;;;;4.53;4.20;;;;;;;;;;5038088;28;20032;-79
2022/03/29 06:22:41;;;;;;;6.20;5.70;;;;;;;;;;5034613;28;20082;-79
2022/03/29 06:25:09;;;;;;;4.43;3.08;;;;;;;;;;5047256;28;20500;-79
2022/03/29 06:27:40;;;;;;;4.35;4.03;;;;;;;;;;5035749;28;20377;-79
2022/03/29 06:30:09;;;;;;;5.25;4.50;;;;;;;;;;5050214;28;20021;-79
2022/03/29 06:32:51;;;;;;;4.03;2.85;;;;;;;;;;5038187;28;20032;-79
2022/03/29 06:35:27;;;;;;;3.50;2.42;;;;;;;;;;5054960;28;20024;-79
2022/03/29 06:59:39;;;;;;;6.97;5.05;;;;;;;;;;5670636;22;20501;-80
2022/03/29 07:11:24;;;;;;;3.30;2.50;;;;;;;;;;5701279;22;20045;-79
2022/03/29 07:17:15;;;;;;;6.32;4.57;;;;;;;;;;5201316;22;20160;-74
2022/03/29 07:19:43;;;;;;;5.15;1.92;;;;;;;;;;5013667;28;20097;-74
2022/03/29 07:22:09;;;;;;;6.80;4.35;;;;;;;;;;5014625;28;20017;-74
2022/03/29 07:24:34;;;;;;;4.85;4.45;;;;;;;;;;5015409;28;20030;-74
2022/03/29 07:27:02;;;;;;;4.28;3.97;;;;;;;;;;5015262;28;20041;-74
2022/03/29 07:29:28;;;;;;;7.22;4.18;;;;;;;;;;5015240;28;20036;-74
2022/03/29 07:31:55;;;;;;;5.45;4.22;;;;;;;;;;5015702;28;20025;-74
2022/03/29 07:34:21;;;;;;;3.88;3.35;;;;;;;;;;5015308;28;20061;-74
2022/03/29 07:36:48;;;;;;;5.15;4.75;;;;;;;;;;5015447;28;20065;-74
2022/03/29 07:39:14;;;;;;;4.00;3.70;;;;;;;;;;5014162;28;20057;-75
2022/03/29 07:41:39;;;;;;;4.53;4.13;;;;;;;;;;5014273;28;20456;-74
2022/03/29 07:44:04;;;;;;;6.97;3.88;;;;;;;;;;5015063;28;20439;-74
2022/03/29 07:46:30;;;;;;;4.18;3.67;;;;;;;;;;5007470;28;20030;-74
2022/03/29 07:48:55;;;;;;;8.35;4.90;;;;;;;;;;5013735;28;20065;-74
2022/03/29 07:51:21;;;;;;;8.45;6.20;;;;;;;;;;5015069;28;20034;-74
2022/03/29 07:53:47;;;;;;;12.05;8.63;;;;;;;;;;5015044;28;20037;-74
2022/03/29 07:56:12;;;;;;;9.75;6.45;;;;;;;;;;5015018;28;20399;-74
2022/03/29 07:58:38;;;;;;;13.88;9.35;;;;;;;;;;5014737;28;20105;-75
2022/03/29 08:01:05;;;;;;;9.18;8.13;;;;;;;;;;5013896;28;20452;-74
2022/03/29 08:03:34;;;;;;;15.02;10.90;;;;;;;;;;5014668;28;20060;-75
2022/03/29 08:06:04;;;;;;;7.13;6.47;;;;;;;;;;5013688;28;20053;-74
2022/03/29 08:08:32;;;;;;;6.28;5.75;;;;;;;;;;4994421;28;20037;-74
2022/03/29 08:10:57;;;;;;;7.55;6.80;;;;;;;;;;5013958;28;20026;-74
2022/03/29 08:13:23;;;;;;;5.88;5.38;;;;;;;;;;5014738;28;20022;-74
2022/03/29 08:15:56;;;;;;;17.95;7.28;;;;;;;;;;5014652;28;20025;-74
2022/03/29 08:18:22;;;;;;;16.13;7.93;;;;;;;;;;5014500;28;20413;-74
2022/03/29 08:20:49;;;;;;;3.30;3.05;;;;;;;;;;5014677;28;20124;-72
2022/03/29 08:23:17;;;;;;;8.27;6.60;;;;;;;;;;5014160;28;20108;-73
2022/03/29 08:25:45;;;;;;;8.70;7.75;;;;;;;;;;5014277;28;20060;-73
2022/03/29 08:28:11;;;;;;;8.80;6.82;;;;;;;;;;5013943;28;20404;-74
2022/03/29 08:30:37;;;;;;;6.25;5.32;;;;;;;;;;5046232;28;20371;-74
2022/03/29 08:33:05;;;;;;;8.48;5.60;;;;;;;;;;5013403;28;20033;-74
2022/03/29 08:35:31;;;;;;;8.40;6.93;;;;;;;;;;5014303;28;20026;-74
2022/03/29 08:37:56;;;;;;;7.47;6.82;;;;;;;;;;5014181;28;20108;-74
2022/03/29 08:40:27;;;;;;;5.55;4.32;;;;;;;;;;5013155;28;20060;-74
2022/03/29 08:42:55;;;;;;;6.47;5.88;;;;;;;;;;5014226;28;20037;-74
2022/03/29 08:45:28;;;;;;;4.93;4.45;;;;;;;;;;5014190;28;20045;-74
2022/03/29 08:47:57;;;;;;;3.67;3.38;;;;;;;;;;5029127;28;20032;-75
2022/03/29 08:50:26;;;;;;;7.65;6.95;;;;;;;;;;5013295;28;20033;-74
2022/03/29 08:52:52;;;;;;;10.80;6.13;;;;;;;;;;5013238;28;20029;-73
2022/03/29 08:55:18;;;;;;;6.78;5.00;;;;;;;;;;5012638;28;20021;-74
2022/03/29 08:57:46;;;;;;;6.43;4.82;;;;;;;;;;5007524;28;20034;-74
2022/03/29 09:00:16;;;;;;;10.13;4.65;;;;;;;;;;5013158;28;20518;-74
2022/03/29 09:02:46;;;;;;;11.02;6.15;;;;;;;;;;5047945;28;20038;-73
2022/03/29 09:05:31;;;;;;;6.95;4.40;;;;;;;;;;5017607;28;20087;-74
2022/03/29 09:07:59;;;;;;;5.45;4.57;;;;;;;;;;5016801;28;20034;-74
2022/03/29 09:10:40;;;;;;;14.95;6.70;;;;;;;;;;5016877;28;20026;-74
2022/03/29 09:13:15;;;;;;;4.47;4.07;;;;;;;;;;5017479;28;20033;-73
2022/03/29 09:15:47;;;;;;;5.93;4.95;;;;;;;;;;5017403;28;20668;-73
2022/03/29 09:18:12;;;;;;;8.48;5.90;;;;;;;;;;5011167;28;20029;-74
2022/03/29 09:20:40;;;;;;;6.47;5.82;;;;;;;;;;5010594;28;20057;-74
2022/03/29 09:23:12;;;;;;;8.05;5.38;;;;;;;;;;5016560;28;20579;-74
2022/03/29 09:25:39;;;;;;;12.00;9.38;;;;;;;;;;5010336;28;20037;-75
2022/03/29 09:28:15;;;;;;;7.28;5.65;;;;;;;;;;5017756;28;20422;-73
2022/03/29 09:30:48;;;;;;;17.30;5.57;;;;;;;;;;5017140;28;20383;-74
2022/03/29 09:33:15;;;;;;;4.78;4.35;;;;;;;;;;5017038;28;20018;-75
2022/03/29 09:36:05;;;;;;;6.20;5.60;;;;;;;;;;5016822;28;20029;-74
2022/03/29 09:38:39;;;;;;;9.02;8.02;;;;;;;;;;5016683;28;20589;-73
2022/03/29 09:41:06;;;;;;;12.75;10.30;;;;;;;;;;5010475;28;20030;-74
2022/03/29 09:43:33;;;;;;;10.50;8.40;;;;;;;;;;5015911;28;20363;-73
2022/03/29 09:46:00;;;;;;;15.65;9.55;;;;;;;;;;5016322;28;20410;-73
2022/03/29 09:48:37;;;;;;;14.82;7.40;;;;;;;;;;5016095;28;20463;-73
2022/03/29 09:51:14;;;;;;;8.65;7.60;;;;;;;;;;5013960;28;20033;-73
2022/03/29 09:53:40;;;;;;;14.32;8.80;;;;;;;;;;5017182;28;20025;-73
2022/03/29 09:56:11;;;;;;;12.25;7.28;;;;;;;;;;5015845;28;20033;-73
2022/03/29 09:58:39;;;;;;;7.55;6.38;;;;;;;;;;5016802;28;20034;-73
2022/03/29 10:01:08;;;;;;;10.52;6.10;;;;;;;;;;5016502;28;20021;-74
2022/03/29 10:03:34;;;;;;;11.13;9.75;;;;;;;;;;5015707;28;20111;-74
2022/03/29 10:06:07;;;;;;;7.57;6.90;;;;;;;;;;5015480;28;20057;-74
2022/03/29 10:11:19;;;;;;;12.82;6.55;;;;;;;;;;5016553;28;20107;-73
2022/03/29 10:13:46;;;;;;;7.50;6.32;;;;;;;;;;5014381;28;20463;-74
2022/03/29 10:16:14;;;;;;;9.13;8.30;;;;;;;;;;4999112;28;20040;-73
2022/03/29 10:18:44;;;;;;;7.90;6.32;;;;;;;;;;5016459;28;20091;-74
2022/03/29 10:21:12;;;;;;;6.70;5.13;;;;;;;;;;5016286;28;20045;-74
2022/03/29 10:23:40;;;;;;;11.32;10.15;;;;;;;;;;5016676;28;20033;-74
2022/03/29 10:26:09;;;;;;;6.20;5.68;;;;;;;;;;5016543;28;20029;-74
2022/03/29 10:28:37;;;;;;;9.15;5.82;;;;;;;;;;5009122;28;20453;-75
2022/03/29 10:31:03;;;;;;;14.77;8.45;;;;;;;;;;5015894;28;20124;-74
2022/03/29 10:33:31;;;;;;;9.40;7.07;;;;;;;;;;5015663;28;20523;-76
2022/03/29 10:36:14;;;;;;;5.63;5.05;;;;;;;;;;5009274;28;20112;-75
2022/03/29 10:38:48;;;;;;;11.00;8.48;;;;;;;;;;4998534;28;20037;-76
2022/03/29 10:41:26;;;;;;;8.68;5.35;;;;;;;;;;5016115;28;20048;-74
2022/03/29 10:43:53;;;;;;;10.02;7.95;;;;;;;;;;5012623;28;20034;-74
2022/03/29 10:46:26;;;;;;;9.18;6.00;;;;;;;;;;5013751;28;20049;-75
2022/03/29 10:49:10;;;;;;;;;;;;;;;;;;5014035;28;20034;-75
2022/03/29 10:51:35;;;;;;;6.57;5.70;;;;;;;;;;5015475;28;19910;-74
2022/03/29 10:54:31;;;;;;;7.40;6.63;;;;;;;;;;5015655;28;20041;-76
2022/03/29 10:56:57;;;;;;;20.80;6.03;;;;;;;;;;5015277;28;20037;-76
2022/03/29 10:59:23;;;;;;;10.93;6.85;;;;;;;;;;5015011;28;20055;-73
2022/03/29 11:02:07;;;;;;;6.60;5.38;;;;;;;;;;5016265;28;20084;-73
2022/03/29 11:04:32;;;;;;;8.75;6.28;;;;;;;;;;5017881;28;20049;-73
2022/03/29 11:07:06;;;;;;;7.38;6.20;;;;;;;;;;5012724;28;20121;-73
2022/03/29 11:09:36;;;;;;;4.40;3.97;;;;;;;;;;5009222;28;20109;-73
2022/03/29 11:12:03;;;;;;;8.43;6.70;;;;;;;;;;5025139;28;20030;-73
2022/03/29 11:14:28;;;;;;;18.35;6.20;;;;;;;;;;4996225;28;20037;-74
2022/03/29 11:16:56;;;;;;;8.43;5.45;;;;;;;;;;5014649;28;20037;-74
2022/03/29 11:19:43;;;;;;;6.60;6.00;;;;;;;;;;5010004;28;20057;-71
2022/03/29 11:22:31;;;;;;;10.75;7.10;;;;;;;;;;5015107;28;20029;-74
2022/03/29 11:24:59;;;;;;;10.00;8.07;;;;;;;;;;5013477;28;20111;-74
2022/03/29 11:27:32;;;;;;;11.82;9.05;;;;;;;;;;5014019;28;20054;-74
2022/03/29 11:29:58;;;;;;;11.02;7.03;;;;;;;;;;5014745;28;20053;-73
2022/03/29 11:32:26;;;;;;;16.23;9.02;;;;;;;;;;5013741;28;20026;-73
2022/03/29 11:34:58;;;;;;;10.63;8.98;;;;;;;;;;5013731;28;20057;-74
2022/03/29 11:37:27;;;;;;;21.08;10.43;;;;;;;;;;5011641;28;20026;-74
2022/03/29 11:39:53;;;;;;;13.88;9.48;;;;;;;;;;5017835;28;20022;-73
2022/03/29 11:42:20;;;;;;;12.95;8.23;;;;;;;;;;5014052;28;20037;-73
2022/03/29 11:44:47;;;;;;;9.20;7.25;;;;;;;;;;5015101;28;20379;-73
2022/03/29 11:47:12;;;;;;;11.85;7.07;;;;;;;;;;5013679;28;20033;-73
2022/03/29 11:49:39;;;;;;;12.93;7.95;;;;;;;;;;5014498;28;20014;-74
2022/03/29 11:52:06;;;;;;;5.95;5.35;;;;;;;;;;5009017;28;20117;-71
2022/03/29 11:54:41;;;;;;;11.07;8.65;;;;;;;;;;5013726;28;20032;-73
2022/03/29 11:57:30;;;;;;;6.90;6.22;;;;;;;;;;5014111;28;20050;-73
2022/03/29 11:59:59;;;;;;;14.23;6.63;;;;;;;;;;5014444;28;20029;-71
2022/03/29 12:02:26;;;;;;;7.88;5.60;;;;;;;;;;5013735;28;20030;-72
2022/03/29 12:04:52;;;;;;;10.88;6.88;;;;;;;;;;5014739;28;20026;-72
2022/03/29 12:07:42;;;;;;;8.32;5.72;;;;;;;;;;5012257;28;20455;-72
2022/03/29 12:10:16;;;;;;;4.25;3.95;;;;;;;;;;5008163;28;20028;-73
2022/03/29 12:12:50;;;;;;;9.00;7.30;;;;;;;;;;5013229;28;20038;-72
2022/03/29 12:15:19;;;;;;;10.50;8.18;;;;;;;;;;5012745;28;20076;-72
2022/03/29 12:20:44;;;;;;;4.35;4.00;;;;;;;;;;5014395;28;20044;-73
2022/03/29 12:23:30;;;;;;;9.32;7.53;;;;;;;;;;5013865;28;20036;-74
2022/03/29 12:25:58;;;;;;;9.80;5.90;;;;;;;;;;5009365;28;20021;-74
2022/03/29 12:28:25;;;;;;;8.68;4.55;;;;;;;;;;5013021;28;20377;-74
2022/03/29 12:30:51;;;;;;;8.55;6.43;;;;;;;;;;5011943;28;20188;-74
2022/03/29 12:33:19;;;;;;;8.68;6.28;;;;;;;;;;5013193;28;20026;-75
2022/03/29 12:36:22;;;;;;;6.32;5.75;;;;;;;;;;5009883;28;20172;-74
2022/03/29 12:38:57;;;;;;;10.65;5.53;;;;;;;;;;4996923;28;20021;-76
2022/03/29 12:41:41;;;;;;;7.32;5.70;;;;;;;;;;5015029;28;20451;-75
2022/03/29 12:44:12;;;;;;;5.57;3.95;;;;;;;;;;5022868;28;20030;-75
2022/03/29 12:46:40;;;;;;;8.25;6.30;;;;;;;;;;5012778;28;20463;-75
2022/03/29 12:49:08;;;;;;;4.20;3.22;;;;;;;;;;5014127;28;20079;-75
2022/03/29 12:51:35;;;;;;;4.15;3.75;;;;;;;;;;5002697;28;20041;-76
2022/03/29 12:54:05;;;;;;;3.58;2.88;;;;;;;;;;5022008;28;20123;-74
2022/03/29 12:56:44;;;;;;;5.15;4.60;;;;;;;;;;5013608;28;20041;-74
2022/03/29 12:59:40;;;;;;;6.88;6.18;;;;;;;;;;5013997;28;20041;-75
2022/03/29 13:02:25;;;;;;;4.22;3.08;;;;;;;;;;5011103;28;20022;-74
2022/03/29 13:04:57;;;;;;;6.80;5.75;;;;;;;;;;5013006;28;20127;-74
2022/03/29 13:07:45;;;;;;;11.23;5.90;;;;;;;;;;5013449;28;20037;-75
2022/03/29 13:10:32;;;;;;;5.78;5.18;;;;;;;;;;5013562;28;20112;-74
2022/03/29 13:13:07;;;;;;;6.07;3.88;;;;;;;;;;5013718;28;20085;-74
2022/03/29 13:15:34;;;;;;;5.30;4.35;;;;;;;;;;5013963;28;20113;-73
2022/03/29 13:18:03;;;;;;;6.32;4.82;;;;;;;;;;5013220;28;20025;-75
2022/03/29 13:20:30;;;;;;;6.25;3.45;;;;;;;;;;5011855;28;20117;-74
2022/03/29 13:22:58;;;;;;;3.50;2.80;;;;;;;;;;5012182;28;20040;-74
2022/03/29 13:25:32;;;;;;;5.40;3.63;;;;;;;;;;5012319;28;20028;-74
2022/03/29 13:27:59;;;;;;;2.42;2.25;;;;;;;;;;5039607;22;20113;-73
2022/03/29 13:30:29;;;;;;;3.60;3.30;;;;;;;;;;4963162;28;20021;-74
2022/03/29 13:32:57;;;;;;;10.73;3.75;;;;;;;;;;4994166;28;20444;-78
2022/03/29 13:35:25;;;;;;;2.85;2.63;;;;;;;;;;4994859;28;20030;-77
2022/03/29 13:37:51;;;;;;;4.60;3.47;;;;;;;;;;4993297;28;20388;-74
2022/03/29 13:40:17;;;;;;;18.52;5.00;;;;;;;;;;4994172;28;20089;-74
2022/03/29 13:42:42;;;;;;;4.72;3.95;;;;;;;;;;4976721;28;20030;-74
2022/03/29 13:45:08;;;;;;;7.63;3.25;;;;;;;;;;4993683;28;20042;-73
2022/03/29 13:47:37;;;;;;;7.70;5.72;;;;;;;;;;4977515;28;20100;-74
2022/03/29 13:50:05;;;;;;;5.07;3.20;;;;;;;;;;4997178;28;20651;-73
2022/03/29 13:52:31;;;;;;;3.20;2.25;;;;;;;;;;4980697;28;20018;-74
2022/03/29 13:54:56;;;;;;;4.43;3.38;;;;;;;;;;4980557;28;20109;-74
2022/03/29 13:57:21;;;;;;;6.18;2.97;;;;;;;;;;4997374;28;20032;-74
2022/03/29 13:59:46;;;;;;;3.85;3.17;;;;;;;;;;4997358;28;20357;-74
2022/03/29 14:02:12;;;;;;;3.50;2.47;;;;;;;;;;4997343;28;20037;-75
2022/03/29 14:04:37;;;;;;;6.40;4.70;;;;;;;;;;4997306;28;20033;-74
2022/03/29 14:07:03;;;;;;;3.53;3.20;;;;;;;;;;4997305;28;20100;-74
2022/03/29 14:09:32;;;;;;;6.90;4.45;;;;;;;;;;4979634;28;20041;-75
2022/03/29 14:11:57;;;;;;;5.60;3.90;;;;;;;;;;4980334;28;20452;-75
2022/03/29 14:14:23;;;;;;;5.13;4.60;;;;;;;;;;4997273;28;20101;-74
2022/03/29 14:16:51;;;;;;;3.70;3.38;;;;;;;;;;4997111;28;20030;-74
2022/03/29 14:19:21;;;;;;;5.55;4.03;;;;;;;;;;4979392;28;20124;-74
2022/03/29 14:21:52;;;;;;;5.97;3.65;;;;;;;;;;5011170;28;20038;-74
2022/03/29 14:24:17;;;;;;;4.13;3.72;;;;;;;;;;4979585;28;20432;-73
2022/03/29 14:26:45;;;;;;;8.38;2.33;;;;;;;;;;4996703;28;20026;-74
2022/03/29 14:29:10;;;;;;;4.03;3.55;;;;;;;;;;5011888;28;20042;-73
2022/03/29 14:31:36;;;;;;;9.13;2.95;;;;;;;;;;4996484;28;20042;-73
2022/03/29 14:34:03;;;;;;;2.47;2.15;;;;;;;;;;4979457;28;20030;-73
2022/03/29 14:36:29;;;;;;;4.72;4.28;;;;;;;;;;4996662;28;20117;-73
2022/03/29 14:38:54;;;;;;;3.13;2.90;;;;;;;;;;4996349;28;20109;-72
2022/03/29 14:41:21;;;;;;;5.45;3.45;;;;;;;;;;4996598;28;20030;-72
2022/03/29 14:43:47;;;;;;;3.78;3.30;;;;;;;;;;4985594;28;20030;-73
2022/03/29 14:46:12;;;;;;;2.88;2.65;;;;;;;;;;5011752;28;20026;-72
2022/03/29 14:48:37;;;;;;;3.40;3.03;;;;;;;;;;4996395;28;20037;-73
2022/03/29 14:51:03;;;;;;;2.15;1.98;;;;;;;;;;4996577;28;20435;-73
2022/03/29 14:53:30;;;;;;;4.75;4.22;;;;;;;;;;4979364;28;20383;-73
2022/03/29 14:55:56;;;;;;;4.90;3.05;;;;;;;;;;4996254;28;20031;-73
2022/03/29 14:58:22;;;;;;;4.93;3.55;;;;;;;;;;4995491;28;20078;-73
2022/03/29 15:00:48;;;;;;;3.13;2.90;;;;;;;;;;4993008;28;20463;-74
2022/03/29 15:03:22;;;;;;;4.13;3.75;;;;;;;;;;4995427;28;20034;-73
2022/03/29 15:05:50;;;;;;;2.53;2.33;;;;;;;;;;4995475;28;20037;-73
2022/03/29 15:08:15;;;;;;;3.20;2.60;;;;;;;;;;4995890;28;20467;-74
2022/03/29 15:10:41;;;;;;;6.70;3.08;;;;;;;;;;5018600;28;20030;-75
2022/03/29 15:13:08;;;;;;;3.75;2.92;;;;;;;;;;4995147;28;20034;-77
2022/03/29 15:15:36;;;;;;;6.45;3.20;;;;;;;;;;4977210;28;20037;-75
2022/03/29 15:18:02;;;;;;;2.97;2.78;;;;;;;;;;4995611;28;20030;-74
2022/03/29 15:20:27;;;;;;;5.03;3.65;;;;;;;;;;4995783;28;20019;-73
2022/03/29 15:22:52;;;;;;;4.93;4.40;;;;;;;;;;4979199;28;20113;-74
2022/03/29 15:25:20;;;;;;;6.75;3.25;;;;;;;;;;4996384;28;20065;-74
2022/03/29 15:27:46;;;;;;;4.97;3.22;;;;;;;;;;4995297;28;20034;-76
2022/03/29 15:30:12;;;;;;;3.20;2.42;;;;;;;;;;4995628;28;20041;-76
2022/03/29 15:32:58;;;;;;;11.35;5.20;;;;;;;;;;4995322;28;20095;-77